Latest Weather Observations for North West 10 Beacon

IDQ60801

Issued at 10:13 am EST Tuesday 21 May 2024 (issued every 10 minutes, with the page automatically refreshed every 10 minutes)

About weather observations | Map of weather stations | Latest weather observations for QLD | Other Formats
Station Details ID: 200896 Name: NORTH WEST 10 BEACON Lat: -27.00 Lon: 153.24 Height: 7.0 m
Data from the previous 72 hours. | See also: Recent months for locations in Queensland
Date/Time
EST
Temp
°C
App
Temp
°C
Dew
Point
°C
Rel
Hum
%
Delta-T
°C
Wind Press
QNH
hPa
Press
MSL
hPa
Rain since
9am
mm
Dir  Spd
km/h
Gust
km/h
Spd
kts
Gust
kts
21/10:00am - - - - - S 22 26 12 14 - - -
21/09:30am - - - - - SSW 22 28 12 15 - - -
21/09:00am - - - - - SSW 26 30 14 16 - - -
21/08:30am - - - - - SSW 22 26 12 14 - - -
21/08:00am - - - - - SW 22 26 12 14 - - -
21/07:30am - - - - - SW 20 26 11 14 - - -
21/07:00am - - - - - SSW 20 22 11 12 - - -
21/06:30am - - - - - SSW 19 22 10 12 - - -
21/06:00am - - - - - SSW 19 20 10 11 - - -
21/05:30am - - - - - SSW 19 20 10 11 - - -
21/05:00am - - - - - SW 15 19 8 10 - - -
21/04:30am - - - - - SW 13 17 7 9 - - -
21/04:00am - - - - - SW 13 17 7 9 - - -
21/03:30am - - - - - SSW 11 15 6 8 - - -
21/03:00am - - - - - S 19 22 10 12 - - -
21/02:30am - - - - - S 20 24 11 13 - - -
21/02:00am - - - - - SSW 19 20 10 11 - - -
21/01:30am - - - - - SSW 19 22 10 12 - - -
21/01:00am - - - - - SSW 19 22 10 12 - - -
21/12:30am - - - - - S 22 24 12 13 - - -
21/12:00am - - - - - S 24 30 13 16 - - -
 
Date/Time
EST
Temp
°C
App
Temp
°C
Dew
Point
°C
Rel
Hum
%
Delta-T
°C
Wind Press
QNH
hPa
Press
MSL
hPa
Rain since
9am
mm
Dir  Spd
km/h
Gust
km/h
Spd
kts
Gust
kts
20/11:30pm - - - - - SSE 24 30 13 16 - - -
20/11:00pm - - - - - SSE 26 32 14 17 - - -
20/10:30pm - - - - - SE 28 32 15 17 - - -
20/10:00pm - - - - - SE 24 28 13 15 - - -
20/09:30pm - - - - - SE 24 30 13 16 - - -
20/09:00pm - - - - - SE 24 28 13 15 - - -
20/08:30pm - - - - - SE 19 22 10 12 - - -
20/08:00pm - - - - - SE 20 22 11 12 - - -
20/07:30pm - - - - - SE 20 24 11 13 - - -
20/07:00pm - - - - - ESE 19 22 10 12 - - -
20/06:30pm - - - - - ESE 17 19 9 10 - - -
20/06:00pm - - - - - ESE 15 19 8 10 - - -
20/05:30pm - - - - - ESE 15 19 8 10 - - -
20/05:00pm - - - - - SE 15 17 8 9 - - -
20/04:30pm - - - - - SE 11 15 6 8 - - -
20/04:00pm - - - - - ESE 11 13 6 7 - - -
20/03:30pm - - - - - ESE 9 11 5 6 - - -
20/03:00pm - - - - - SE 11 13 6 7 - - -
20/02:30pm - - - - - SE 15 17 8 9 - - -
20/02:00pm - - - - - SSE 17 19 9 10 - - -
20/01:30pm - - - - - SSE 15 19 8 10 - - -
20/01:00pm - - - - - S 19 20 10 11 - - -
20/12:30pm - - - - - S 20 24 11 13 - - -
20/12:00pm - - - - - S 22 26 12 14 - - -
20/11:30am - - - - - S 22 26 12 14 - - -
20/11:00am - - - - - S 20 24 11 13 - - -
20/10:30am - - - - - SSW 20 22 11 12 - - -
20/10:00am - - - - - SSW 22 26 12 14 - - -
20/09:30am - - - - - SSW 22 26 12 14 - - -
20/09:00am - - - - - SSW 19 22 10 12 - - -
20/08:30am - - - - - SW 15 19 8 10 - - -
20/08:00am - - - - - SW 13 17 7 9 - - -
20/07:30am - - - - - SW 11 13 6 7 - - -
20/07:00am - - - - - SW 17 20 9 11 - - -
20/06:30am - - - - - SW 15 19 8 10 - - -
20/06:00am - - - - - SSW 17 19 9 10 - - -
20/05:30am - - - - - SSW 19 22 10 12 - - -
20/05:00am - - - - - SW 19 20 10 11 - - -
20/04:30am - - - - - SW 22 24 12 13 - - -
20/04:00am - - - - - SW 20 24 11 13 - - -
20/03:30am - - - - - SW 22 26 12 14 - - -
20/03:00am - - - - - SW 19 22 10 12 - - -
20/02:30am - - - - - SSW 20 22 11 12 - - -
20/02:00am - - - - - SW 19 20 10 11 - - -
20/01:30am - - - - - SSW 20 26 11 14 - - -
20/01:00am - - - - - SSW 22 26 12 14 - - -
20/12:30am - - - - - SSW 20 26 11 14 - - -
20/12:00am - - - - - SW 19 22 10 12 - - -
 
Date/Time
EST
Temp
°C
App
Temp
°C
Dew
Point
°C
Rel
Hum
%
Delta-T
°C
Wind Press
QNH
hPa
Press
MSL
hPa
Rain since
9am
mm
Dir  Spd
km/h
Gust
km/h
Spd
kts
Gust
kts
19/11:30pm - - - - - SSW 19 20 10 11 - - -
19/11:00pm - - - - - SSW 19 20 10 11 - - -
19/10:30pm - - - - - SSW 17 24 9 13 - - -
19/10:00pm - - - - - S 22 28 12 15 - - -
19/09:30pm - - - - - SSE 22 30 12 16 - - -
19/09:00pm - - - - - SSE 22 28 12 15 - - -
19/08:30pm - - - - - SSE 22 28 12 15 - - -
19/08:00pm - - - - - SSE 22 28 12 15 - - -
19/07:30pm - - - - - SSE 24 32 13 17 - - -
19/07:00pm - - - - - SSE 24 30 13 16 - - -
19/06:30pm - - - - - SSE 20 26 11 14 - - -
19/06:00pm - - - - - SSE 24 30 13 16 - - -
19/05:30pm - - - - - SSE 22 28 12 15 - - -
19/05:00pm - - - - - SSE 22 26 12 14 - - -
19/04:30pm - - - - - SE 17 20 9 11 - - -
19/04:00pm - - - - - SSE 22 28 12 15 - - -
19/03:30pm - - - - - SSE 20 26 11 14 - - -
19/03:00pm - - - - - S 24 30 13 16 - - -
19/02:30pm - - - - - S 26 30 14 16 - - -
19/02:00pm - - - - - S 28 33 15 18 - - -
19/01:30pm - - - - - S 28 33 15 18 - - -
19/01:00pm - - - - - S 30 35 16 19 - - -
19/12:30pm - - - - - SSW 33 39 18 21 - - -
19/12:00pm - - - - - SSW 35 43 19 23 - - -
19/11:30am - - - - - SSW 32 41 17 22 - - -
19/11:00am - - - - - SSW 30 39 16 21 - - -
19/10:30am - - - - - S 32 37 17 20 - - -
19/10:00am - - - - - SSW 33 39 18 21 - - -
19/09:30am - - - - - SSW 32 39 17 21 - - -
19/09:00am - - - - - SSW 33 41 18 22 - - -
19/08:30am - - - - - SSW 35 43 19 23 - - -
19/08:00am - - - - - SSW 37 44 20 24 - - -
19/07:30am - - - - - SSW 39 46 21 25 - - -
19/07:00am - - - - - SSW 35 43 19 23 - - -
19/06:30am - - - - - SSW 37 44 20 24 - - -
19/06:00am - - - - - SSW 41 52 22 28 - - -
19/05:30am - - - - - SW 30 39 16 21 - - -
19/05:00am - - - - - SW 30 39 16 21 - - -
19/04:30am - - - - - SSW 32 37 17 20 - - -
19/04:00am - - - - - SSW 32 35 17 19 - - -
19/03:30am - - - - - SSW 33 39 18 21 - - -
19/03:00am - - - - - SSW 33 39 18 21 - - -
19/02:30am - - - - - SSW 30 35 16 19 - - -
19/02:00am - - - - - SSW 33 41 18 22 - - -
19/01:30am - - - - - SSW 35 43 19 23 - - -
19/01:00am - - - - - SSW 35 44 19 24 - - -
19/12:30am - - - - - SSW 33 41 18 22 - - -
19/12:00am - - - - - SSW 33 39 18 21 - - -
 
Date/Time
EST
Temp
°C
App
Temp
°C
Dew
Point
°C
Rel
Hum
%
Delta-T
°C
Wind Press
QNH
hPa
Press
MSL
hPa
Rain since
9am
mm
Dir  Spd
km/h
Gust
km/h
Spd
kts
Gust
kts
18/11:30pm - - - - - SSW 33 41 18 22 - - -
18/11:00pm - - - - - S 39 44 21 24 - - -
18/10:30pm - - - - - S 44 54 24 29 - - -
18/10:11pm - - - - - SSE 43 61 23 33 - - -
18/10:08pm - - - - - SSE 39 61 21 33 - - -
18/10:00pm - - - - - SSE 32 39 17 21 - - -
18/09:30pm - - - - - S 30 35 16 19 - - -
18/09:00pm - - - - - SSE 30 37 16 20 - - -
18/08:30pm - - - - - SSW 24 30 13 16 - - -
18/08:00pm - - - - - SW 20 28 11 15 - - -
18/07:30pm - - - - - SW 17 19 9 10 - - -
18/07:00pm - - - - - S 9 13 5 7 - - -
18/06:30pm - - - - - ESE 2 6 1 3 - - -
18/06:00pm - - - - - ESE 2 2 1 1 - - -
18/05:30pm - - - - - E 4 4 2 2 - - -
18/05:00pm - - - - - ESE 2 2 1 1 - - -
18/04:30pm - - - - - ESE 4 6 2 3 - - -
18/04:00pm - - - - - ESE 7 9 4 5 - - -
18/03:30pm - - - - - SE 9 13 5 7 - - -
18/03:00pm - - - - - SE 11 13 6 7 - - -
18/02:30pm - - - - - SE 11 13 6 7 - - -
18/02:00pm - - - - - SE 13 13 7 7 - - -
18/01:30pm - - - - - SSE 13 17 7 9 - - -
18/01:00pm - - - - - SSE 13 15 7 8 - - -
18/12:30pm - - - - - SSE 11 13 6 7 - - -
18/12:00pm - - - - - S 11 13 6 7 - - -
18/11:30am - - - - - S 11 15 6 8 - - -
18/11:00am - - - - - S 13 15 7 8 - - -
18/10:30am - - - - - SSW 15 19 8 10 - - -

Other formats

Comma delimited format used in spreadsheet applications
http://www.bom.gov.au/fwo/IDQ60801/IDQ60801.99496.axf

JavaScript Object Notation format (JSON) in row-major order
http://www.bom.gov.au/fwo/IDQ60801/IDQ60801.99496.json

Data quality

Most of these data are generated automatically and are frequently updated. Quality checks on data are not normally performed. It is possible for incorrect values to appear. Refer to information at About Latest Weather Observations and please check the disclaimer before using these data.